Aviation Digital Data Service (ADDS)

Output produced by METARs form (1956 UTC 17 November 2019)
found at http://www.aviationweather.gov/metar/data/
 
METAR text: WMKA 171900Z 00000KT 9000 FEW010 25/25 Q1010
Conditions at: WMKA (S ABDUL HALIM , MY) observed 1900 UTC 17 November 2019
Temperature: 25.0°C (77°F)
Dewpoint: 25.0°C (77°F) [RH = 100%]
Pressure (altimeter): 29.82 inches Hg (1010.0 mb)
Winds: calm
Visibility: 6 miles ( 9 km)
Ceiling: at least 12,000 feet AGL
Clouds: few clouds at 1000 feet AGL
Weather: no significant weather observed at this time

METAR text: WMKA 171800Z 00000KT 9000 FEW010 25/25 Q1010
Conditions at: WMKA (S ABDUL HALIM , MY) observed 1800 UTC 17 November 2019
Temperature: 25.0°C (77°F)
Dewpoint: 25.0°C (77°F) [RH = 100%]
Pressure (altimeter): 29.82 inches Hg (1010.0 mb)
Winds: calm
Visibility: 6 miles ( 9 km)
Ceiling: at least 12,000 feet AGL
Clouds: few clouds at 1000 feet AGL
Weather: no significant weather observed at this time

METAR text: WMKA 171700Z VRB01KT 9000 FEW010 25/24 Q1011
Conditions at: WMKA (S ABDUL HALIM , MY) observed 1700 UTC 17 November 2019
Temperature: 25.0°C (77°F)
Dewpoint: 24.0°C (75°F) [RH = 94%]
Pressure (altimeter): 29.85 inches Hg (1011.0 mb)
Winds: variable direction winds at 1 MPH (1 knots; 0.5 m/s)
Visibility: 6 miles ( 9 km)
Ceiling: at least 12,000 feet AGL
Clouds: few clouds at 1000 feet AGL
Weather: no significant weather observed at this time

METAR text: WMKA 171600Z 00000KT 9999 SCT030 24/24 Q1011
Conditions at: WMKA (S ABDUL HALIM , MY) observed 1600 UTC 17 November 2019
Temperature: 24.0°C (75°F)
Dewpoint: 24.0°C (75°F) [RH = 100%]
Pressure (altimeter): 29.85 inches Hg (1011.0 mb)
Winds: calm
Visibility: 6 or more miles (10+ km)
Ceiling: at least 12,000 feet AGL
Clouds: scattered clouds at 3000 feet AGL
Weather: no significant weather observed at this time

METAR text: WMKA 171500Z VRB03KT 9999 FEW030 24/23 Q1011
Conditions at: WMKA (S ABDUL HALIM , MY) observed 1500 UTC 17 November 2019
Temperature: 24.0°C (75°F)
Dewpoint: 23.0°C (73°F) [RH = 94%]
Pressure (altimeter): 29.85 inches Hg (1011.0 mb)
Winds: variable direction winds at 3 MPH (3 knots; 1.5 m/s)
Visibility: 6 or more miles (10+ km)
Ceiling: at least 12,000 feet AGL
Clouds: few clouds at 3000 feet AGL
Weather: no significant weather observed at this time

METAR text: WMKA 171400Z VRB02KT 9999 FEW010 24/23 Q1012
Conditions at: WMKA (S ABDUL HALIM , MY) observed 1400 UTC 17 November 2019
Temperature: 24.0°C (75°F)
Dewpoint: 23.0°C (73°F) [RH = 94%]
Pressure (altimeter): 29.88 inches Hg (1012.0 mb)
Winds: variable direction winds at 2 MPH (2 knots; 1.0 m/s)
Visibility: 6 or more miles (10+ km)
Ceiling: at least 12,000 feet AGL
Clouds: few clouds at 1000 feet AGL
Weather: no significant weather observed at this time

METAR text: WMKA 171300Z 00000KT 9000 -RA FEW010 FEW017CB SCT028 24/24 Q1011
Conditions at: WMKA (S ABDUL HALIM , MY) observed 1300 UTC 17 November 2019
Temperature: 24.0°C (75°F)
Dewpoint: 24.0°C (75°F) [RH = 100%]
Pressure (altimeter): 29.85 inches Hg (1011.0 mb)
Winds: calm
Visibility: 6 miles ( 9 km)
Ceiling: at least 12,000 feet AGL
Clouds: few clouds at 1000 feet AGL
few clouds at 1700 feet AGL
scattered clouds at 2800 feet AGL
Weather: -RA  (light rain)

METAR text: WMKA 171200Z 06005KT 350V120 7000 TSRA FEW010 FEW017CB SCT026 24/24 Q1010
Conditions at: WMKA (S ABDUL HALIM , MY) observed 1200 UTC 17 November 2019
Temperature: 24.0°C (75°F)
Dewpoint: 24.0°C (75°F) [RH = 100%]
Pressure (altimeter): 29.82 inches Hg (1010.0 mb)
Winds: from the ENE (60 degrees) at 6 MPH (5 knots; 2.6 m/s)
Visibility: 4 miles ( 7 km)
Ceiling: at least 12,000 feet AGL
Clouds: few clouds at 1000 feet AGL
few clouds at 1700 feet AGL
scattered clouds at 2600 feet AGL
Weather: TSRA  (rain associated with thunderstorm(s))

METAR text: WMKA 171100Z 05005KT 350V110 7000 -TSRA FEW010 FEW017CB 25/25 Q1009 RESHRA
Conditions at: WMKA (S ABDUL HALIM , MY) observed 1100 UTC 17 November 2019
Temperature: 25.0°C (77°F)
Dewpoint: 25.0°C (77°F) [RH = 100%]
Pressure (altimeter): 29.79 inches Hg (1009.0 mb)
Winds: from the NE (50 degrees) at 6 MPH (5 knots; 2.6 m/s)
Visibility: 4 miles ( 7 km)
Ceiling: at least 12,000 feet AGL
Clouds: few clouds at 1000 feet AGL
few clouds at 1700 feet AGL
Weather: -TSRA  (light rain associated with thunderstorm(s))

METAR text: WMKA 171000Z 35008KT 250V060 5000 +SHRA SCT018 27/26 Q1008
Conditions at: WMKA (S ABDUL HALIM , MY) observed 1000 UTC 17 November 2019
Temperature: 27.0°C (81°F)
Dewpoint: 26.0°C (79°F) [RH = 94%]
Pressure (altimeter): 29.76 inches Hg (1008.0 mb)
Winds: from the N (350 degrees) at 9 MPH (8 knots; 4.1 m/s)
Visibility: 3 miles ( 5 km)
Ceiling: at least 12,000 feet AGL
Clouds: scattered clouds at 1800 feet AGL
Weather: +SHRA  (heavy rain showers)

METAR text: WMKA 170900Z VRB03KT 9999 FEW020 32/27 Q1007
Conditions at: WMKA (S ABDUL HALIM , MY) observed 0900 UTC 17 November 2019
Temperature: 32.0°C (90°F)
Dewpoint: 27.0°C (81°F) [RH = 75%]
Pressure (altimeter): 29.73 inches Hg (1007.0 mb)
Winds: variable direction winds at 3 MPH (3 knots; 1.5 m/s)
Visibility: 6 or more miles (10+ km)
Ceiling: at least 12,000 feet AGL
Clouds: few clouds at 2000 feet AGL
Weather: no significant weather observed at this time

METAR text: WMKA 170800Z 26004KT 150V320 9999 SCT020 34/27 Q1007
Conditions at: WMKA (S ABDUL HALIM , MY) observed 0800 UTC 17 November 2019
Temperature: 34.0°C (93°F)
Dewpoint: 27.0°C (81°F) [RH = 67%]
Pressure (altimeter): 29.73 inches Hg (1007.0 mb)
Winds: from the W (260 degrees) at 5 MPH (4 knots; 2.1 m/s)
Visibility: 6 or more miles (10+ km)
Ceiling: at least 12,000 feet AGL
Clouds: scattered clouds at 2000 feet AGL
Weather: no significant weather observed at this time

METAR text: WMKA 170700Z 24004KT 140V310 9999 FEW020 33/28 Q1008
Conditions at: WMKA (S ABDUL HALIM , MY) observed 0700 UTC 17 November 2019
Temperature: 33.0°C (91°F)
Dewpoint: 28.0°C (82°F) [RH = 75%]
Pressure (altimeter): 29.76 inches Hg (1008.0 mb)
Winds: from the WSW (240 degrees) at 5 MPH (4 knots; 2.1 m/s)
Visibility: 6 or more miles (10+ km)
Ceiling: at least 12,000 feet AGL
Clouds: few clouds at 2000 feet AGL
Weather: no significant weather observed at this time

METAR text: WMKA 170600Z VRB03KT 9999 FEW020 33/27 Q1009
Conditions at: WMKA (S ABDUL HALIM , MY) observed 0600 UTC 17 November 2019
Temperature: 33.0°C (91°F)
Dewpoint: 27.0°C (81°F) [RH = 71%]
Pressure (altimeter): 29.79 inches Hg (1009.0 mb)
Winds: variable direction winds at 3 MPH (3 knots; 1.5 m/s)
Visibility: 6 or more miles (10+ km)
Ceiling: at least 12,000 feet AGL
Clouds: few clouds at 2000 feet AGL
Weather: no significant weather observed at this time

METAR text: WMKA 170500Z 33004KT 280V040 9999 FEW020 32/27 Q1010
Conditions at: WMKA (S ABDUL HALIM , MY) observed 0500 UTC 17 November 2019
Temperature: 32.0°C (90°F)
Dewpoint: 27.0°C (81°F) [RH = 75%]
Pressure (altimeter): 29.82 inches Hg (1010.0 mb)
Winds: from the NNW (330 degrees) at 5 MPH (4 knots; 2.1 m/s)
Visibility: 6 or more miles (10+ km)
Ceiling: at least 12,000 feet AGL
Clouds: few clouds at 2000 feet AGL
Weather: no significant weather observed at this time

METAR text: WMKA 170400Z VRB02KT 9999 FEW020 32/26 Q1012
Conditions at: WMKA (S ABDUL HALIM , MY) observed 0400 UTC 17 November 2019
Temperature: 32.0°C (90°F)
Dewpoint: 26.0°C (79°F) [RH = 71%]
Pressure (altimeter): 29.88 inches Hg (1012.0 mb)
Winds: variable direction winds at 2 MPH (2 knots; 1.0 m/s)
Visibility: 6 or more miles (10+ km)
Ceiling: at least 12,000 feet AGL
Clouds: few clouds at 2000 feet AGL
Weather: no significant weather observed at this time

METAR text: WMKA 170300Z 07004KT 010V130 9999 FEW020 30/26 Q1012
Conditions at: WMKA (S ABDUL HALIM , MY) observed 0300 UTC 17 November 2019
Temperature: 30.0°C (86°F)
Dewpoint: 26.0°C (79°F) [RH = 79%]
Pressure (altimeter): 29.88 inches Hg (1012.0 mb)
Winds: from the ENE (70 degrees) at 5 MPH (4 knots; 2.1 m/s)
Visibility: 6 or more miles (10+ km)
Ceiling: at least 12,000 feet AGL
Clouds: few clouds at 2000 feet AGL
Weather: no significant weather observed at this time

METAR text: WMKA 170200Z 04004KT 350V100 9999 FEW020 27/25 Q1012
Conditions at: WMKA (S ABDUL HALIM , MY) observed 0200 UTC 17 November 2019
Temperature: 27.0°C (81°F)
Dewpoint: 25.0°C (77°F) [RH = 89%]
Pressure (altimeter): 29.88 inches Hg (1012.0 mb)
Winds: from the NE (40 degrees) at 5 MPH (4 knots; 2.1 m/s)
Visibility: 6 or more miles (10+ km)
Ceiling: at least 12,000 feet AGL
Clouds: few clouds at 2000 feet AGL
Weather: no significant weather observed at this time

METAR text: WMKA 170100Z VRB02KT 9999 FEW020 26/24 Q1012
Conditions at: WMKA (S ABDUL HALIM , MY) observed 0100 UTC 17 November 2019
Temperature: 26.0°C (79°F)
Dewpoint: 24.0°C (75°F) [RH = 89%]
Pressure (altimeter): 29.88 inches Hg (1012.0 mb)
Winds: variable direction winds at 2 MPH (2 knots; 1.0 m/s)
Visibility: 6 or more miles (10+ km)
Ceiling: at least 12,000 feet AGL
Clouds: few clouds at 2000 feet AGL
Weather: no significant weather observed at this time

METAR text: WMKA 170000Z VRB03KT 9999 FEW020 25/24 Q1011
Conditions at: WMKA (S ABDUL HALIM , MY) observed 0000 UTC 17 November 2019
Temperature: 25.0°C (77°F)
Dewpoint: 24.0°C (75°F) [RH = 94%]
Pressure (altimeter): 29.85 inches Hg (1011.0 mb)
Winds: variable direction winds at 3 MPH (3 knots; 1.5 m/s)
Visibility: 6 or more miles (10+ km)
Ceiling: at least 12,000 feet AGL
Clouds: few clouds at 2000 feet AGL
Weather: no significant weather observed at this time

METAR text: WMKA 162300Z VRB02KT 9000 FEW028 25/24 Q1010
Conditions at: WMKA (S ABDUL HALIM , MY) observed 2300 UTC 16 November 2019
Temperature: 25.0°C (77°F)
Dewpoint: 24.0°C (75°F) [RH = 94%]
Pressure (altimeter): 29.82 inches Hg (1010.0 mb)
Winds: variable direction winds at 2 MPH (2 knots; 1.0 m/s)
Visibility: 6 miles ( 9 km)
Ceiling: at least 12,000 feet AGL
Clouds: few clouds at 2800 feet AGL
Weather: no significant weather observed at this time

METAR text: WMKA 162200Z 00000KT 9000 FEW028 25/24 Q1010
Conditions at: WMKA (S ABDUL HALIM , MY) observed 2200 UTC 16 November 2019
Temperature: 25.0°C (77°F)
Dewpoint: 24.0°C (75°F) [RH = 94%]
Pressure (altimeter): 29.82 inches Hg (1010.0 mb)
Winds: calm
Visibility: 6 miles ( 9 km)
Ceiling: at least 12,000 feet AGL
Clouds: few clouds at 2800 feet AGL
Weather: no significant weather observed at this time

METAR text: WMKA 162100Z VRB03KT 9000 FEW028 25/24 Q1010
Conditions at: WMKA (S ABDUL HALIM , MY) observed 2100 UTC 16 November 2019
Temperature: 25.0°C (77°F)
Dewpoint: 24.0°C (75°F) [RH = 94%]
Pressure (altimeter): 29.82 inches Hg (1010.0 mb)
Winds: variable direction winds at 3 MPH (3 knots; 1.5 m/s)
Visibility: 6 miles ( 9 km)
Ceiling: at least 12,000 feet AGL
Clouds: few clouds at 2800 feet AGL
Weather: no significant weather observed at this time

METAR text: WMKA 162000Z 00000KT 9999 FEW028 25/24 Q1010
Conditions at: WMKA (S ABDUL HALIM , MY) observed 2000 UTC 16 November 2019
Temperature: 25.0°C (77°F)
Dewpoint: 24.0°C (75°F) [RH = 94%]
Pressure (altimeter): 29.82 inches Hg (1010.0 mb)
Winds: calm
Visibility: 6 or more miles (10+ km)
Ceiling: at least 12,000 feet AGL
Clouds: few clouds at 2800 feet AGL
Weather: no significant weather observed at this time

METAR text: WMKA 161900Z 00000KT 9000 FEW028 25/24 Q1010
Conditions at: WMKA (S ABDUL HALIM , MY) observed 1900 UTC 16 November 2019
Temperature: 25.0°C (77°F)
Dewpoint: 24.0°C (75°F) [RH = 94%]
Pressure (altimeter): 29.82 inches Hg (1010.0 mb)
Winds: calm
Visibility: 6 miles ( 9 km)
Ceiling: at least 12,000 feet AGL
Clouds: few clouds at 2800 feet AGL
Weather: no significant weather observed at this time

METAR text: WMKA 161800Z VRB02KT 9000 FEW028 25/24 Q1011
Conditions at: WMKA (S ABDUL HALIM , MY) observed 1800 UTC 16 November 2019
Temperature: 25.0°C (77°F)
Dewpoint: 24.0°C (75°F) [RH = 94%]
Pressure (altimeter): 29.85 inches Hg (1011.0 mb)
Winds: variable direction winds at 2 MPH (2 knots; 1.0 m/s)
Visibility: 6 miles ( 9 km)
Ceiling: at least 12,000 feet AGL
Clouds: few clouds at 2800 feet AGL
Weather: no significant weather observed at this time

METAR text: WMKA 161700Z VRB01KT 9000 FEW028 25/24 Q1011
Conditions at: WMKA (S ABDUL HALIM , MY) observed 1700 UTC 16 November 2019
Temperature: 25.0°C (77°F)
Dewpoint: 24.0°C (75°F) [RH = 94%]
Pressure (altimeter): 29.85 inches Hg (1011.0 mb)
Winds: variable direction winds at 1 MPH (1 knots; 0.5 m/s)
Visibility: 6 miles ( 9 km)
Ceiling: at least 12,000 feet AGL
Clouds: few clouds at 2800 feet AGL
Weather: no significant weather observed at this time

METAR text: WMKA 161600Z VRB01KT 9999 FEW028 25/25 Q1012
Conditions at: WMKA (S ABDUL HALIM , MY) observed 1600 UTC 16 November 2019
Temperature: 25.0°C (77°F)
Dewpoint: 25.0°C (77°F) [RH = 100%]
Pressure (altimeter): 29.88 inches Hg (1012.0 mb)
Winds: variable direction winds at 1 MPH (1 knots; 0.5 m/s)
Visibility: 6 or more miles (10+ km)
Ceiling: at least 12,000 feet AGL
Clouds: few clouds at 2800 feet AGL
Weather: no significant weather observed at this time

METAR text: WMKA 161500Z 14003KT 9999 FEW028 26/25 Q1012
Conditions at: WMKA (S ABDUL HALIM , MY) observed 1500 UTC 16 November 2019
Temperature: 26.0°C (79°F)
Dewpoint: 25.0°C (77°F) [RH = 94%]
Pressure (altimeter): 29.88 inches Hg (1012.0 mb)
Winds: from the SE (140 degrees) at 3 MPH (3 knots; 1.5 m/s)
Visibility: 6 or more miles (10+ km)
Ceiling: at least 12,000 feet AGL
Clouds: few clouds at 2800 feet AGL
Weather: no significant weather observed at this time

METAR text: WMKA 161400Z VRB02KT 9999 FEW028 26/25 Q1012
Conditions at: WMKA (S ABDUL HALIM , MY) observed 1400 UTC 16 November 2019
Temperature: 26.0°C (79°F)
Dewpoint: 25.0°C (77°F) [RH = 94%]
Pressure (altimeter): 29.88 inches Hg (1012.0 mb)
Winds: variable direction winds at 2 MPH (2 knots; 1.0 m/s)
Visibility: 6 or more miles (10+ km)
Ceiling: at least 12,000 feet AGL
Clouds: few clouds at 2800 feet AGL
Weather: no significant weather observed at this time

METAR text: WMKA 161300Z VRB02KT 9999 FEW028 26/25 Q1011
Conditions at: WMKA (S ABDUL HALIM , MY) observed 1300 UTC 16 November 2019
Temperature: 26.0°C (79°F)
Dewpoint: 25.0°C (77°F) [RH = 94%]
Pressure (altimeter): 29.85 inches Hg (1011.0 mb)
Winds: variable direction winds at 2 MPH (2 knots; 1.0 m/s)
Visibility: 6 or more miles (10+ km)
Ceiling: at least 12,000 feet AGL
Clouds: few clouds at 2800 feet AGL
Weather: no significant weather observed at this time

METAR text: WMKA 161200Z 00000KT 9999 FEW028 27/25 Q1010
Conditions at: WMKA (S ABDUL HALIM , MY) observed 1200 UTC 16 November 2019
Temperature: 27.0°C (81°F)
Dewpoint: 25.0°C (77°F) [RH = 89%]
Pressure (altimeter): 29.82 inches Hg (1010.0 mb)
Winds: calm
Visibility: 6 or more miles (10+ km)
Ceiling: at least 12,000 feet AGL
Clouds: few clouds at 2800 feet AGL
Weather: no significant weather observed at this time

METAR text: WMKA 161100Z VRB03KT 9999 FEW030 27/25 Q1009
Conditions at: WMKA (S ABDUL HALIM , MY) observed 1100 UTC 16 November 2019
Temperature: 27.0°C (81°F)
Dewpoint: 25.0°C (77°F) [RH = 89%]
Pressure (altimeter): 29.79 inches Hg (1009.0 mb)
Winds: variable direction winds at 3 MPH (3 knots; 1.5 m/s)
Visibility: 6 or more miles (10+ km)
Ceiling: at least 12,000 feet AGL
Clouds: few clouds at 3000 feet AGL
Weather: no significant weather observed at this time

METAR text: WMKA 161000Z 22005KT 160V300 9999 FEW017CB 28/25 Q1008
Conditions at: WMKA (S ABDUL HALIM , MY) observed 1000 UTC 16 November 2019
Temperature: 28.0°C (82°F)
Dewpoint: 25.0°C (77°F) [RH = 84%]
Pressure (altimeter): 29.76 inches Hg (1008.0 mb)
Winds: from the SW (220 degrees) at 6 MPH (5 knots; 2.6 m/s)
Visibility: 6 or more miles (10+ km)
Ceiling: at least 12,000 feet AGL
Clouds: few clouds at 1700 feet AGL
Weather: no significant weather observed at this time

METAR text: WMKA 160900Z 20009KT 170V250 9999 FEW017CB SCT020 29/26 Q1007
Conditions at: WMKA (S ABDUL HALIM , MY) observed 0900 UTC 16 November 2019
Temperature: 29.0°C (84°F)
Dewpoint: 26.0°C (79°F) [RH = 84%]
Pressure (altimeter): 29.73 inches Hg (1007.0 mb)
Winds: from the SSW (200 degrees) at 10 MPH (9 knots; 4.6 m/s)
Visibility: 6 or more miles (10+ km)
Ceiling: at least 12,000 feet AGL
Clouds: few clouds at 1700 feet AGL
scattered clouds at 2000 feet AGL
Weather: no significant weather observed at this time

METAR text: WMKA 160800Z VRB06KT 9999 SCT020 32/26 Q1007
Conditions at: WMKA (S ABDUL HALIM , MY) observed 0800 UTC 16 November 2019
Temperature: 32.0°C (90°F)
Dewpoint: 26.0°C (79°F) [RH = 71%]
Pressure (altimeter): 29.73 inches Hg (1007.0 mb)
Winds: variable direction winds at 7 MPH (6 knots; 3.1 m/s)
Visibility: 6 or more miles (10+ km)
Ceiling: at least 12,000 feet AGL
Clouds: scattered clouds at 2000 feet AGL
Weather: no significant weather observed at this time

Forecast for: WMKA (S ABDUL HALIM , MY)
Text: TAF WMKA 171700Z 1718/1818 VRB03KT 9999 FEW030
Forecast period: 1800 UTC 17 November 2019 to 0500 UTC 18 November 2019
Forecast type: FROM: standard forecast or significant change
Winds: variable direction winds at 3 MPH (3 knots; 1.5 m/s)
Visibility: 6 or more miles 10+ km)
Ceiling: at least 12,000 feet AGL
Clouds: few clouds at 3000 feet AGL
Weather: no significant weather forecast for this period
Text: BECMG 1805/1807 24007KT FEW020
Forecast period: 0500 to 1100 UTC 18 November 2019
Forecast type: BECOMING: Conditions expected to become as follows by 0700 UTC 18 November 2019
Winds: from the WSW (240 degrees) at 8 MPH (7 knots; 3.6 m/s)
Visibility: 6 or more miles 10+ km)
Ceiling: at least 12,000 feet AGL
Clouds: few clouds at 2000 feet AGL
Weather: no significant weather forecast for this period
Text: TEMPO 1807/1812 4000 +TSRA FEW010 FEW017CB
Forecast period: 0700 to 1200 UTC 18 November 2019
Forecast type: TEMPORARY: The following changes expected for less than half the time period
Visibility: 2.49 miles (4.01 km)
Ceiling: at least 12,000 feet AGL
Clouds: few clouds at 1000 feet AGL
few clouds at 1700 feet AGL
Weather: +TSRA  (heavy rain associated with thunderstorm(s))
Text: BECMG 1811/1813 VRB03KT FEW030
Forecast period: 1100 to 1800 UTC 18 November 2019
Forecast type: BECOMING: Conditions expected to become as follows by 1300 UTC 18 November 2019
Winds: variable direction winds at 3 MPH (3 knots; 1.5 m/s)
Visibility: 6 or more miles 10+ km)
Ceiling: at least 12,000 feet AGL
Clouds: few clouds at 3000 feet AGL
Weather: no significant weather forecast for this period